sensor_id;sensor_type;location;lat;lon;timestamp;P1;durP1;ratioP1;P2;durP2;ratioP2
22711;SDS011;11523;50.390;8.072;2023-07-20T03:52:56;7.07;;;4.60;;
22711;SDS011;11523;50.390;8.072;2023-07-20T03:55:28;12.57;;;5.05;;
22711;SDS011;11523;50.390;8.072;2023-07-20T03:57:54;10.52;;;4.05;;
22711;SDS011;11523;50.390;8.072;2023-07-20T04:00:20;6.30;;;4.70;;
22711;SDS011;11523;50.390;8.072;2023-07-20T04:02:46;7.90;;;4.40;;
22711;SDS011;11523;50.390;8.072;2023-07-20T04:05:12;12.32;;;5.72;;
22711;SDS011;11523;50.390;8.072;2023-07-20T04:07:38;9.88;;;5.18;;
22711;SDS011;11523;50.390;8.072;2023-07-20T04:10:04;8.40;;;4.63;;
22711;SDS011;11523;50.390;8.072;2023-07-20T04:12:30;6.20;;;4.70;;
22711;SDS011;11523;50.390;8.072;2023-07-20T04:14:56;6.55;;;4.20;;
22711;SDS011;11523;50.390;8.072;2023-07-20T04:17:22;5.70;;;4.57;;
22711;SDS011;11523;50.390;8.072;2023-07-20T04:19:48;5.55;;;4.38;;
22711;SDS011;11523;50.390;8.072;2023-07-20T04:22:13;5.03;;;4.30;;
22711;SDS011;11523;50.390;8.072;2023-07-20T04:24:42;6.22;;;4.20;;
22711;SDS011;11523;50.390;8.072;2023-07-20T04:27:08;9.57;;;4.38;;
22711;SDS011;11523;50.390;8.072;2023-07-20T04:29:34;6.47;;;4.30;;
22711;SDS011;11523;50.390;8.072;2023-07-20T04:32:00;7.38;;;4.55;;
22711;SDS011;11523;50.390;8.072;2023-07-20T04:34:26;5.85;;;4.55;;
22711;SDS011;11523;50.390;8.072;2023-07-20T04:36:52;5.28;;;4.47;;
22711;SDS011;11523;50.390;8.072;2023-07-20T04:39:18;6.22;;;4.50;;
22711;SDS011;11523;50.390;8.072;2023-07-20T04:41:44;5.97;;;4.40;;
22711;SDS011;11523;50.390;8.072;2023-07-20T04:44:10;5.25;;;4.50;;
22711;SDS011;11523;50.390;8.072;2023-07-20T04:46:36;6.40;;;4.50;;
22711;SDS011;11523;50.390;8.072;2023-07-20T04:49:02;9.80;;;4.47;;
22711;SDS011;11523;50.390;8.072;2023-07-20T04:51:28;7.20;;;3.95;;
22711;SDS011;11523;50.390;8.072;2023-07-20T04:53:55;7.13;;;3.83;;
22711;SDS011;11523;50.390;8.072;2023-07-20T04:56:21;5.60;;;3.53;;
22711;SDS011;11523;50.390;8.072;2023-07-20T04:58:48;5.43;;;3.47;;
22711;SDS011;11523;50.390;8.072;2023-07-20T05:01:14;5.15;;;3.42;;
22711;SDS011;11523;50.390;8.072;2023-07-20T05:03:40;5.30;;;3.42;;
22711;SDS011;11523;50.390;8.072;2023-07-20T05:06:06;10.45;;;3.90;;
22711;SDS011;11523;50.390;8.072;2023-07-20T05:08:32;7.15;;;3.88;;
22711;SDS011;11523;50.390;8.072;2023-07-20T05:10:59;5.20;;;3.60;;
22711;SDS011;11523;50.390;8.072;2023-07-20T05:13:25;6.65;;;3.55;;
22711;SDS011;11523;50.390;8.072;2023-07-20T05:15:51;5.20;;;3.38;;
22711;SDS011;11523;50.390;8.072;2023-07-20T05:18:18;6.70;;;4.15;;
22711;SDS011;11523;50.390;8.072;2023-07-20T05:20:46;7.70;;;3.83;;
22711;SDS011;11523;50.390;8.072;2023-07-20T05:23:12;5.10;;;3.63;;
22711;SDS011;11523;50.390;8.072;2023-07-20T05:25:38;6.57;;;3.67;;
22711;SDS011;11523;50.390;8.072;2023-07-20T05:28:04;7.53;;;3.58;;
22711;SDS011;11523;50.390;8.072;2023-07-20T05:30:31;5.85;;;3.80;;
22711;SDS011;11523;50.390;8.072;2023-07-20T05:32:57;7.65;;;4.03;;
22711;SDS011;11523;50.390;8.072;2023-07-20T05:35:23;7.40;;;3.55;;
22711;SDS011;11523;50.390;8.072;2023-07-20T05:37:49;8.80;;;3.90;;
22711;SDS011;11523;50.390;8.072;2023-07-20T05:40:15;7.68;;;3.65;;
22711;SDS011;11523;50.390;8.072;2023-07-20T05:42:44;9.05;;;3.60;;
22711;SDS011;11523;50.390;8.072;2023-07-20T05:45:10;6.53;;;3.35;;
22711;SDS011;11523;50.390;8.072;2023-07-20T05:47:36;6.05;;;3.13;;
22711;SDS011;11523;50.390;8.072;2023-07-20T05:50:02;5.35;;;3.20;;
22711;SDS011;11523;50.390;8.072;2023-07-20T05:52:28;4.50;;;3.30;;
22711;SDS011;11523;50.390;8.072;2023-07-20T05:54:54;4.78;;;3.05;;
22711;SDS011;11523;50.390;8.072;2023-07-20T05:57:20;4.72;;;3.00;;
22711;SDS011;11523;50.390;8.072;2023-07-20T05:59:46;5.25;;;2.88;;
22711;SDS011;11523;50.390;8.072;2023-07-20T06:02:12;5.85;;;3.63;;
22711;SDS011;11523;50.390;8.072;2023-07-20T06:04:39;6.82;;;3.58;;
22711;SDS011;11523;50.390;8.072;2023-07-20T06:07:05;5.75;;;3.38;;
22711;SDS011;11523;50.390;8.072;2023-07-20T06:09:32;6.10;;;3.05;;
22711;SDS011;11523;50.390;8.072;2023-07-20T06:11:59;10.82;;;3.67;;
22711;SDS011;11523;50.390;8.072;2023-07-20T06:14:24;5.65;;;3.50;;
22711;SDS011;11523;50.390;8.072;2023-07-20T06:16:51;7.53;;;3.35;;
22711;SDS011;11523;50.390;8.072;2023-07-20T06:19:16;5.13;;;3.10;;
22711;SDS011;11523;50.390;8.072;2023-07-20T06:21:43;6.90;;;3.50;;
22711;SDS011;11523;50.390;8.072;2023-07-20T06:24:09;5.43;;;3.00;;
22711;SDS011;11523;50.390;8.072;2023-07-20T06:26:35;5.00;;;3.17;;
22711;SDS011;11523;50.390;8.072;2023-07-20T06:29:04;7.20;;;3.38;;
22711;SDS011;11523;50.390;8.072;2023-07-20T06:31:31;8.70;;;3.70;;
22711;SDS011;11523;50.390;8.072;2023-07-20T06:33:57;5.97;;;3.55;;
22711;SDS011;11523;50.390;8.072;2023-07-20T06:36:22;6.18;;;3.03;;
22711;SDS011;11523;50.390;8.072;2023-07-20T06:38:50;5.82;;;3.63;;
22711;SDS011;11523;50.390;8.072;2023-07-20T06:41:16;4.68;;;3.35;;
22711;SDS011;11523;50.390;8.072;2023-07-20T06:43:42;6.60;;;3.10;;
22711;SDS011;11523;50.390;8.072;2023-07-20T06:46:08;4.28;;;2.88;;
22711;SDS011;11523;50.390;8.072;2023-07-20T06:48:34;5.10;;;3.33;;
22711;SDS011;11523;50.390;8.072;2023-07-20T06:51:00;7.65;;;3.40;;
22711;SDS011;11523;50.390;8.072;2023-07-20T06:53:27;7.38;;;3.72;;
22711;SDS011;11523;50.390;8.072;2023-07-20T06:55:53;7.85;;;3.30;;
22711;SDS011;11523;50.390;8.072;2023-07-20T06:58:19;6.43;;;3.20;;
22711;SDS011;11523;50.390;8.072;2023-07-20T07:00:46;7.90;;;3.33;;
22711;SDS011;11523;50.390;8.072;2023-07-20T07:03:12;7.13;;;4.10;;
22711;SDS011;11523;50.390;8.072;2023-07-20T07:05:38;6.00;;;3.20;;
22711;SDS011;11523;50.390;8.072;2023-07-20T07:08:04;5.25;;;3.35;;
22711;SDS011;11523;50.390;8.072;2023-07-20T07:10:30;7.55;;;3.88;;
22711;SDS011;11523;50.390;8.072;2023-07-20T07:12:56;7.25;;;3.15;;
22711;SDS011;11523;50.390;8.072;2023-07-20T07:15:22;6.63;;;3.72;;
22711;SDS011;11523;50.390;8.072;2023-07-20T07:17:48;5.75;;;3.67;;
22711;SDS011;11523;50.390;8.072;2023-07-20T07:20:15;7.90;;;3.53;;
22711;SDS011;11523;50.390;8.072;2023-07-20T07:22:41;7.15;;;3.53;;
22711;SDS011;11523;50.390;8.072;2023-07-20T07:25:09;5.65;;;3.78;;
22711;SDS011;11523;50.390;8.072;2023-07-20T07:27:35;6.97;;;3.55;;
22711;SDS011;11523;50.390;8.072;2023-07-20T07:30:01;6.57;;;3.63;;
22711;SDS011;11523;50.390;8.072;2023-07-20T07:32:27;4.63;;;3.90;;
22711;SDS011;11523;50.390;8.072;2023-07-20T07:34:53;6.88;;;4.13;;
22711;SDS011;11523;50.390;8.072;2023-07-20T07:37:20;8.50;;;4.70;;
22711;SDS011;11523;50.390;8.072;2023-07-20T07:39:46;7.30;;;5.00;;
22711;SDS011;11523;50.390;8.072;2023-07-20T07:42:12;9.82;;;6.00;;
22711;SDS011;11523;50.390;8.072;2023-07-20T07:44:38;7.68;;;5.38;;
22711;SDS011;11523;50.390;8.072;2023-07-20T07:47:04;9.07;;;5.60;;
22711;SDS011;11523;50.390;8.072;2023-07-20T07:49:30;8.65;;;5.65;;
22711;SDS011;11523;50.390;8.072;2023-07-20T07:52:02;8.10;;;5.32;;
22711;SDS011;11523;50.390;8.072;2023-07-20T07:54:34;8.45;;;5.43;;
22711;SDS011;11523;50.390;8.072;2023-07-20T07:57:00;9.05;;;5.32;;
22711;SDS011;11523;50.390;8.072;2023-07-20T07:59:26;9.18;;;5.85;;
22711;SDS011;11523;50.390;8.072;2023-07-20T08:01:52;8.57;;;5.45;;
22711;SDS011;11523;50.390;8.072;2023-07-20T08:04:18;10.68;;;5.88;;
22711;SDS011;11523;50.390;8.072;2023-07-20T08:06:44;9.45;;;5.30;;
22711;SDS011;11523;50.390;8.072;2023-07-20T08:09:10;9.70;;;5.85;;
22711;SDS011;11523;50.390;8.072;2023-07-20T08:11:38;13.63;;;5.28;;
22711;SDS011;11523;50.390;8.072;2023-07-20T08:14:04;6.72;;;4.45;;
22711;SDS011;11523;50.390;8.072;2023-07-20T08:16:30;12.13;;;5.07;;
22711;SDS011;11523;50.390;8.072;2023-07-20T08:18:56;7.65;;;4.63;;
22711;SDS011;11523;50.390;8.072;2023-07-20T08:21:22;7.05;;;3.90;;
22711;SDS011;11523;50.390;8.072;2023-07-20T08:23:48;8.52;;;4.45;;
22711;SDS011;11523;50.390;8.072;2023-07-20T08:26:14;7.03;;;4.28;;
22711;SDS011;11523;50.390;8.072;2023-07-20T08:28:40;5.38;;;3.70;;
22711;SDS011;11523;50.390;8.072;2023-07-20T08:31:06;10.38;;;4.88;;
22711;SDS011;11523;50.390;8.072;2023-07-20T08:33:32;6.80;;;4.18;;
22711;SDS011;11523;50.390;8.072;2023-07-20T08:35:59;5.47;;;3.80;;
22711;SDS011;11523;50.390;8.072;2023-07-20T08:38:26;4.43;;;3.05;;
22711;SDS011;11523;50.390;8.072;2023-07-20T08:40:52;5.05;;;3.17;;
22711;SDS011;11523;50.390;8.072;2023-07-20T08:43:19;6.47;;;3.20;;
22711;SDS011;11523;50.390;8.072;2023-07-20T08:45:45;4.47;;;2.50;;
22711;SDS011;11523;50.390;8.072;2023-07-20T08:48:12;6.03;;;2.60;;
22711;SDS011;11523;50.390;8.072;2023-07-20T08:50:39;5.78;;;3.00;;
22711;SDS011;11523;50.390;8.072;2023-07-20T08:53:05;6.60;;;2.30;;
22711;SDS011;11523;50.390;8.072;2023-07-20T08:55:32;3.38;;;2.05;;
22711;SDS011;11523;50.390;8.072;2023-07-20T08:57:58;3.08;;;2.10;;
22711;SDS011;11523;50.390;8.072;2023-07-20T09:00:25;5.63;;;2.20;;
22711;SDS011;11523;50.390;8.072;2023-07-20T09:02:54;3.65;;;2.45;;
22711;SDS011;11523;50.390;8.072;2023-07-20T09:05:22;3.60;;;2.30;;
22711;SDS011;11523;50.390;8.072;2023-07-20T09:07:48;5.35;;;2.22;;
22711;SDS011;11523;50.390;8.072;2023-07-20T09:10:14;2.97;;;1.83;;
22711;SDS011;11523;50.390;8.072;2023-07-20T09:12:41;5.65;;;2.10;;
22711;SDS011;11523;50.390;8.072;2023-07-20T09:15:07;1.95;;;1.60;;
22711;SDS011;11523;50.390;8.072;2023-07-20T09:17:45;3.13;;;1.90;;
22711;SDS011;11523;50.390;8.072;2023-07-20T09:20:12;3.38;;;1.85;;
22711;SDS011;11523;50.390;8.072;2023-07-20T09:22:38;4.25;;;2.20;;
22711;SDS011;11523;50.390;8.072;2023-07-20T09:25:08;4.82;;;2.22;;
22711;SDS011;11523;50.390;8.072;2023-07-20T09:27:37;4.93;;;1.77;;
22711;SDS011;11523;50.390;8.072;2023-07-20T09:30:03;3.10;;;1.98;;
22711;SDS011;11523;50.390;8.072;2023-07-20T09:32:32;5.88;;;2.10;;
22711;SDS011;11523;50.390;8.072;2023-07-20T09:35:04;4.45;;;2.10;;
22711;SDS011;11523;50.390;8.072;2023-07-20T09:37:31;3.22;;;2.05;;
22711;SDS011;11523;50.390;8.072;2023-07-20T09:39:58;2.42;;;2.05;;
22711;SDS011;11523;50.390;8.072;2023-07-20T09:42:25;1.80;;;1.70;;
22711;SDS011;11523;50.390;8.072;2023-07-20T09:44:52;3.83;;;1.60;;
22711;SDS011;11523;50.390;8.072;2023-07-20T09:47:22;4.53;;;1.50;;
22711;SDS011;11523;50.390;8.072;2023-07-20T09:49:48;4.28;;;2.03;;
22711;SDS011;11523;50.390;8.072;2023-07-20T09:52:14;4.55;;;2.03;;
22711;SDS011;11523;50.390;8.072;2023-07-20T09:54:40;3.20;;;1.83;;
22711;SDS011;11523;50.390;8.072;2023-07-20T09:57:08;3.40;;;1.70;;
22711;SDS011;11523;50.390;8.072;2023-07-20T09:59:35;2.08;;;1.88;;
22711;SDS011;11523;50.390;8.072;2023-07-20T10:02:02;1.88;;;1.58;;
22711;SDS011;11523;50.390;8.072;2023-07-20T10:04:31;3.30;;;2.70;;
22711;SDS011;11523;50.390;8.072;2023-07-20T10:06:58;5.13;;;2.60;;
22711;SDS011;11523;50.390;8.072;2023-07-20T10:09:25;3.05;;;2.58;;
22711;SDS011;11523;50.390;8.072;2023-07-20T10:11:52;2.78;;;2.50;;
22711;SDS011;11523;50.390;8.072;2023-07-20T10:14:22;2.88;;;2.25;;
22711;SDS011;11523;50.390;8.072;2023-07-20T10:16:51;2.40;;;1.67;;
22711;SDS011;11523;50.390;8.072;2023-07-20T10:19:25;1.90;;;1.70;;
22711;SDS011;11523;50.390;8.072;2023-07-20T10:21:56;1.70;;;1.60;;
22711;SDS011;11523;50.390;8.072;2023-07-20T10:24:27;2.42;;;1.73;;
22711;SDS011;11523;50.390;8.072;2023-07-20T10:26:55;2.78;;;1.55;;
22711;SDS011;11523;50.390;8.072;2023-07-20T10:29:21;4.38;;;1.85;;
22711;SDS011;11523;50.390;8.072;2023-07-20T10:31:48;2.50;;;1.80;;
22711;SDS011;11523;50.390;8.072;2023-07-20T10:34:14;3.05;;;1.50;;
22711;SDS011;11523;50.390;8.072;2023-07-20T10:36:44;4.50;;;1.88;;
22711;SDS011;11523;50.390;8.072;2023-07-20T10:39:31;2.25;;;1.70;;
22711;SDS011;11523;50.390;8.072;2023-07-20T10:42:01;3.63;;;2.05;;
22711;SDS011;11523;50.390;8.072;2023-07-20T10:44:28;2.40;;;1.70;;
22711;SDS011;11523;50.390;8.072;2023-07-20T10:47:01;3.90;;;2.03;;
22711;SDS011;11523;50.390;8.072;2023-07-20T10:49:27;5.65;;;1.85;;
22711;SDS011;11523;50.390;8.072;2023-07-20T10:51:58;4.30;;;2.13;;
22711;SDS011;11523;50.390;8.072;2023-07-20T10:56:50;2.17;;;1.80;;
22711;SDS011;11523;50.390;8.072;2023-07-20T10:59:19;4.68;;;2.00;;
22711;SDS011;11523;50.390;8.072;2023-07-20T11:01:46;3.67;;;1.55;;
22711;SDS011;11523;50.390;8.072;2023-07-20T11:04:14;3.05;;;1.80;;
22711;SDS011;11523;50.390;8.072;2023-07-20T11:06:45;5.50;;;1.70;;
22711;SDS011;11523;50.390;8.072;2023-07-20T11:09:12;4.47;;;1.48;;
22711;SDS011;11523;50.390;8.072;2023-07-20T11:11:42;3.22;;;1.70;;
22711;SDS011;11523;50.390;8.072;2023-07-20T11:14:09;3.13;;;2.00;;
22711;SDS011;11523;50.390;8.072;2023-07-20T11:19:02;4.07;;;1.48;;
22711;SDS011;11523;50.390;8.072;2023-07-20T11:21:28;2.95;;;1.58;;
22711;SDS011;11523;50.390;8.072;2023-07-20T11:23:55;2.92;;;1.52;;
22711;SDS011;11523;50.390;8.072;2023-07-20T11:26:21;2.22;;;1.60;;
22711;SDS011;11523;50.390;8.072;2023-07-20T11:28:50;2.08;;;1.33;;
22711;SDS011;11523;50.390;8.072;2023-07-20T11:31:17;1.95;;;1.48;;
22711;SDS011;11523;50.390;8.072;2023-07-20T11:33:43;1.52;;;1.42;;
22711;SDS011;11523;50.390;8.072;2023-07-20T11:36:09;3.13;;;1.77;;
22711;SDS011;11523;50.390;8.072;2023-07-20T11:38:35;2.10;;;1.52;;
22711;SDS011;11523;50.390;8.072;2023-07-20T11:41:04;2.13;;;1.40;;
22711;SDS011;11523;50.390;8.072;2023-07-20T11:43:30;5.40;;;1.83;;
22711;SDS011;11523;50.390;8.072;2023-07-20T11:45:56;2.90;;;1.48;;
22711;SDS011;11523;50.390;8.072;2023-07-20T11:48:22;3.92;;;1.40;;
22711;SDS011;11523;50.390;8.072;2023-07-20T11:50:48;2.60;;;1.67;;
22711;SDS011;11523;50.390;8.072;2023-07-20T11:53:14;3.22;;;1.77;;
22711;SDS011;11523;50.390;8.072;2023-07-20T11:55:41;3.78;;;1.80;;
22711;SDS011;11523;50.390;8.072;2023-07-20T11:58:08;1.90;;;1.50;;
22711;SDS011;11523;50.390;8.072;2023-07-20T12:00:34;2.47;;;1.52;;
22711;SDS011;11523;50.390;8.072;2023-07-20T12:03:00;1.48;;;1.30;;
22711;SDS011;11523;50.390;8.072;2023-07-20T12:05:27;1.40;;;1.30;;
22711;SDS011;11523;50.390;8.072;2023-07-20T12:07:53;2.80;;;1.50;;
22711;SDS011;11523;50.390;8.072;2023-07-20T12:10:23;1.50;;;1.40;;
22711;SDS011;11523;50.390;8.072;2023-07-20T12:12:50;3.83;;;1.60;;
22711;SDS011;11523;50.390;8.072;2023-07-20T12:17:43;1.58;;;1.48;;
22711;SDS011;11523;50.390;8.072;2023-07-20T12:20:09;1.77;;;1.42;;
22711;SDS011;11523;50.390;8.072;2023-07-20T12:22:39;2.13;;;1.63;;
22711;SDS011;11523;50.390;8.072;2023-07-20T12:25:06;2.08;;;1.27;;
22711;SDS011;11523;50.390;8.072;2023-07-20T12:27:33;3.83;;;1.70;;
22711;SDS011;11523;50.390;8.072;2023-07-20T12:29:59;1.80;;;1.45;;
22711;SDS011;11523;50.390;8.072;2023-07-20T12:32:25;1.38;;;1.25;;
22711;SDS011;11523;50.390;8.072;2023-07-20T12:34:50;1.60;;;1.40;;
22711;SDS011;11523;50.390;8.072;2023-07-20T12:37:19;3.08;;;1.40;;
22711;SDS011;11523;50.390;8.072;2023-07-20T12:39:45;2.88;;;1.30;;
22711;SDS011;11523;50.390;8.072;2023-07-20T12:42:12;3.17;;;1.50;;
22711;SDS011;11523;50.390;8.072;2023-07-20T12:44:40;2.28;;;1.40;;
22711;SDS011;11523;50.390;8.072;2023-07-20T12:47:06;1.75;;;1.50;;
22711;SDS011;11523;50.390;8.072;2023-07-20T12:49:32;1.67;;;1.38;;
22711;SDS011;11523;50.390;8.072;2023-07-20T12:51:58;2.33;;;1.40;;
22711;SDS011;11523;50.390;8.072;2023-07-20T12:54:24;1.60;;;1.20;;
22711;SDS011;11523;50.390;8.072;2023-07-20T12:56:50;1.98;;;1.65;;
22711;SDS011;11523;50.390;8.072;2023-07-20T12:59:16;1.75;;;1.50;;
22711;SDS011;11523;50.390;8.072;2023-07-20T13:01:42;1.88;;;1.42;;
22711;SDS011;11523;50.390;8.072;2023-07-20T13:04:09;3.13;;;1.55;;
22711;SDS011;11523;50.390;8.072;2023-07-20T13:06:35;2.25;;;1.40;;
22711;SDS011;11523;50.390;8.072;2023-07-20T13:09:01;1.50;;;1.40;;
22711;SDS011;11523;50.390;8.072;2023-07-20T13:11:28;3.40;;;1.70;;
22711;SDS011;11523;50.390;8.072;2023-07-20T13:13:54;2.38;;;1.70;;
22711;SDS011;11523;50.390;8.072;2023-07-20T13:16:20;2.58;;;1.42;;
22711;SDS011;11523;50.390;8.072;2023-07-20T13:18:46;2.40;;;1.50;;
22711;SDS011;11523;50.390;8.072;2023-07-20T13:21:12;3.08;;;1.48;;
22711;SDS011;11523;50.390;8.072;2023-07-20T13:23:38;2.08;;;1.40;;
22711;SDS011;11523;50.390;8.072;2023-07-20T13:26:04;2.28;;;1.40;;
22711;SDS011;11523;50.390;8.072;2023-07-20T13:28:30;2.13;;;1.40;;
22711;SDS011;11523;50.390;8.072;2023-07-20T13:30:56;1.42;;;1.30;;
22711;SDS011;11523;50.390;8.072;2023-07-20T13:33:22;2.90;;;1.40;;
22711;SDS011;11523;50.390;8.072;2023-07-20T13:35:48;3.38;;;1.45;;
22711;SDS011;11523;50.390;8.072;2023-07-20T13:38:14;1.77;;;1.42;;
22711;SDS011;11523;50.390;8.072;2023-07-20T13:40:40;3.00;;;1.40;;
22711;SDS011;11523;50.390;8.072;2023-07-20T13:43:07;1.90;;;1.30;;
22711;SDS011;11523;50.390;8.072;2023-07-20T13:45:33;1.98;;;1.20;;
22711;SDS011;11523;50.390;8.072;2023-07-20T13:47:59;2.00;;;1.50;;
22711;SDS011;11523;50.390;8.072;2023-07-20T13:50:25;2.20;;;1.52;;
22711;SDS011;11523;50.390;8.072;2023-07-20T13:52:57;1.70;;;1.60;;
22711;SDS011;11523;50.390;8.072;2023-07-20T13:55:23;2.97;;;1.60;;
22711;SDS011;11523;50.390;8.072;2023-07-20T13:57:49;2.92;;;1.70;;
22711;SDS011;11523;50.390;8.072;2023-07-20T14:00:15;1.52;;;1.42;;
22711;SDS011;11523;50.390;8.072;2023-07-20T14:02:41;2.70;;;1.70;;
22711;SDS011;11523;50.390;8.072;2023-07-20T14:05:07;1.85;;;1.50;;
22711;SDS011;11523;50.390;8.072;2023-07-20T14:07:34;1.75;;;1.60;;
22711;SDS011;11523;50.390;8.072;2023-07-20T14:10:01;5.28;;;1.73;;
22711;SDS011;11523;50.390;8.072;2023-07-20T14:12:27;2.67;;;1.63;;
22711;SDS011;11523;50.390;8.072;2023-07-20T14:14:53;1.95;;;1.65;;
22711;SDS011;11523;50.390;8.072;2023-07-20T14:17:20;3.70;;;1.52;;
22711;SDS011;11523;50.390;8.072;2023-07-20T14:19:46;1.98;;;1.40;;
22711;SDS011;11523;50.390;8.072;2023-07-20T14:22:12;4.28;;;1.50;;
22711;SDS011;11523;50.390;8.072;2023-07-20T14:24:38;3.03;;;1.67;;
22711;SDS011;11523;50.390;8.072;2023-07-20T14:27:04;2.85;;;2.15;;
22711;SDS011;11523;50.390;8.072;2023-07-20T14:29:30;5.20;;;1.60;;
22711;SDS011;11523;50.390;8.072;2023-07-20T14:31:57;4.45;;;1.98;;
22711;SDS011;11523;50.390;8.072;2023-07-20T14:34:23;3.03;;;1.98;;
22711;SDS011;11523;50.390;8.072;2023-07-20T14:36:49;1.77;;;1.40;;
22711;SDS011;11523;50.390;8.072;2023-07-20T14:39:16;2.30;;;1.42;;
22711;SDS011;11523;50.390;8.072;2023-07-20T14:41:42;2.08;;;1.40;;
22711;SDS011;11523;50.390;8.072;2023-07-20T14:44:07;4.88;;;1.70;;
22711;SDS011;11523;50.390;8.072;2023-07-20T14:46:35;4.10;;;1.80;;
22711;SDS011;11523;50.390;8.072;2023-07-20T14:49:01;4.25;;;1.58;;
22711;SDS011;11523;50.390;8.072;2023-07-20T14:51:27;6.13;;;2.40;;
22711;SDS011;11523;50.390;8.072;2023-07-20T14:53:58;8.13;;;1.80;;
22711;SDS011;11523;50.390;8.072;2023-07-20T14:56:24;7.28;;;1.80;;
22711;SDS011;11523;50.390;8.072;2023-07-20T14:58:50;3.35;;;1.75;;
22711;SDS011;11523;50.390;8.072;2023-07-20T15:01:16;2.00;;;1.70;;
22711;SDS011;11523;50.390;8.072;2023-07-20T15:03:41;2.35;;;1.67;;
22711;SDS011;11523;50.390;8.072;2023-07-20T15:06:10;1.95;;;1.77;;
22711;SDS011;11523;50.390;8.072;2023-07-20T15:08:42;2.78;;;2.00;;
22711;SDS011;11523;50.390;8.072;2023-07-20T15:11:08;2.83;;;1.70;;
22711;SDS011;11523;50.390;8.072;2023-07-20T15:13:34;2.67;;;1.77;;
22711;SDS011;11523;50.390;8.072;2023-07-20T15:16:00;4.30;;;1.92;;
22711;SDS011;11523;50.390;8.072;2023-07-20T15:18:26;2.83;;;1.60;;
22711;SDS011;11523;50.390;8.072;2023-07-20T15:20:52;3.28;;;2.15;;
22711;SDS011;11523;50.390;8.072;2023-07-20T15:23:18;3.47;;;1.52;;
22711;SDS011;11523;50.390;8.072;2023-07-20T15:25:44;3.35;;;1.77;;
22711;SDS011;11523;50.390;8.072;2023-07-20T15:28:10;3.55;;;1.50;;
22711;SDS011;11523;50.390;8.072;2023-07-20T15:30:37;4.30;;;1.70;;
22711;SDS011;11523;50.390;8.072;2023-07-20T15:33:03;1.90;;;1.70;;
22711;SDS011;11523;50.390;8.072;2023-07-20T15:35:28;3.13;;;1.65;;
22711;SDS011;11523;50.390;8.072;2023-07-20T15:37:54;1.70;;;1.60;;
22711;SDS011;11523;50.390;8.072;2023-07-20T15:40:20;2.70;;;1.58;;
22711;SDS011;11523;50.390;8.072;2023-07-20T15:42:47;4.32;;;1.65;;
22711;SDS011;11523;50.390;8.072;2023-07-20T15:45:13;4.63;;;1.90;;
22711;SDS011;11523;50.390;8.072;2023-07-20T15:47:39;5.72;;;1.80;;
22711;SDS011;11523;50.390;8.072;2023-07-20T15:50:06;3.60;;;1.50;;
22711;SDS011;11523;50.390;8.072;2023-07-20T15:52:32;2.55;;;1.58;;
22711;SDS011;11523;50.390;8.072;2023-07-20T15:54:58;3.92;;;1.48;;
22711;SDS011;11523;50.390;8.072;2023-07-20T15:57:23;4.30;;;1.50;;
22711;SDS011;11523;50.390;8.072;2023-07-20T15:59:49;1.80;;;1.40;;
22711;SDS011;11523;50.390;8.072;2023-07-20T16:02:15;4.47;;;1.90;;
22711;SDS011;11523;50.390;8.072;2023-07-20T16:04:41;3.50;;;2.00;;
22711;SDS011;11523;50.390;8.072;2023-07-20T16:07:10;2.40;;;1.90;;
22711;SDS011;11523;50.390;8.072;2023-07-20T16:09:36;3.08;;;1.77;;
22711;SDS011;11523;50.390;8.072;2023-07-20T16:12:03;3.08;;;1.70;;
22711;SDS011;11523;50.390;8.072;2023-07-20T16:14:29;3.97;;;2.10;;
22711;SDS011;11523;50.390;8.072;2023-07-20T16:16:55;2.40;;;1.52;;
22711;SDS011;11523;50.390;8.072;2023-07-20T16:19:21;3.70;;;1.90;;
22711;SDS011;11523;50.390;8.072;2023-07-20T16:21:47;3.20;;;1.70;;
22711;SDS011;11523;50.390;8.072;2023-07-20T16:24:13;2.70;;;1.52;;
22711;SDS011;11523;50.390;8.072;2023-07-20T16:26:39;1.90;;;1.70;;
22711;SDS011;11523;50.390;8.072;2023-07-20T16:29:08;3.92;;;1.70;;
22711;SDS011;11523;50.390;8.072;2023-07-20T16:31:34;4.30;;;1.70;;
22711;SDS011;11523;50.390;8.072;2023-07-20T16:34:01;2.97;;;1.80;;
22711;SDS011;11523;50.390;8.072;2023-07-20T16:36:27;2.22;;;1.60;;
22711;SDS011;11523;50.390;8.072;2023-07-20T16:38:53;3.45;;;1.50;;
22711;SDS011;11523;50.390;8.072;2023-07-20T16:41:19;6.20;;;1.92;;
22711;SDS011;11523;50.390;8.072;2023-07-20T16:43:45;3.60;;;1.77;;
22711;SDS011;11523;50.390;8.072;2023-07-20T16:46:11;6.18;;;2.00;;
22711;SDS011;11523;50.390;8.072;2023-07-20T16:48:37;2.40;;;1.95;;
22711;SDS011;11523;50.390;8.072;2023-07-20T16:51:04;5.30;;;1.80;;
22711;SDS011;11523;50.390;8.072;2023-07-20T16:53:30;2.80;;;1.88;;
22711;SDS011;11523;50.390;8.072;2023-07-20T16:55:56;2.30;;;1.70;;
22711;SDS011;11523;50.390;8.072;2023-07-20T16:58:22;2.28;;;1.70;;
22711;SDS011;11523;50.390;8.072;2023-07-20T17:00:49;2.25;;;1.80;;
22711;SDS011;11523;50.390;8.072;2023-07-20T17:03:15;3.33;;;1.90;;
22711;SDS011;11523;50.390;8.072;2023-07-20T17:05:42;1.90;;;1.70;;
22711;SDS011;11523;50.390;8.072;2023-07-20T17:08:08;2.33;;;1.83;;
22711;SDS011;11523;50.390;8.072;2023-07-20T17:10:37;4.43;;;1.80;;
22711;SDS011;11523;50.390;8.072;2023-07-20T17:13:04;1.85;;;1.60;;
22711;SDS011;11523;50.390;8.072;2023-07-20T17:15:31;3.72;;;1.90;;
22711;SDS011;11523;50.390;8.072;2023-07-20T17:17:57;2.33;;;1.80;;
22711;SDS011;11523;50.390;8.072;2023-07-20T17:20:23;2.25;;;1.48;;
22711;SDS011;11523;50.390;8.072;2023-07-20T17:22:49;1.60;;;1.50;;
22711;SDS011;11523;50.390;8.072;2023-07-20T17:25:15;3.22;;;1.67;;
22711;SDS011;11523;50.390;8.072;2023-07-20T17:27:41;5.55;;;1.50;;
22711;SDS011;11523;50.390;8.072;2023-07-20T17:30:07;3.15;;;1.80;;
22711;SDS011;11523;50.390;8.072;2023-07-20T17:32:34;2.35;;;1.55;;
22711;SDS011;11523;50.390;8.072;2023-07-20T17:35:00;2.80;;;1.48;;
22711;SDS011;11523;50.390;8.072;2023-07-20T17:37:26;2.00;;;1.70;;
22711;SDS011;11523;50.390;8.072;2023-07-20T17:39:52;2.45;;;1.98;;
22711;SDS011;11523;50.390;8.072;2023-07-20T17:42:18;2.13;;;1.80;;
22711;SDS011;11523;50.390;8.072;2023-07-20T17:44:44;2.20;;;1.60;;
22711;SDS011;11523;50.390;8.072;2023-07-20T17:47:10;2.05;;;1.70;;
22711;SDS011;11523;50.390;8.072;2023-07-20T17:49:37;4.45;;;1.77;;
22711;SDS011;11523;50.390;8.072;2023-07-20T17:52:03;2.95;;;1.52;;
22711;SDS011;11523;50.390;8.072;2023-07-20T17:54:29;1.85;;;1.50;;
22711;SDS011;11523;50.390;8.072;2023-07-20T17:56:55;3.83;;;1.70;;
22711;SDS011;11523;50.390;8.072;2023-07-20T17:59:21;2.72;;;1.70;;
22711;SDS011;11523;50.390;8.072;2023-07-20T18:01:47;2.65;;;2.08;;
22711;SDS011;11523;50.390;8.072;2023-07-20T18:04:13;2.47;;;1.60;;
22711;SDS011;11523;50.390;8.072;2023-07-20T18:06:39;3.67;;;1.77;;
22711;SDS011;11523;50.390;8.072;2023-07-20T18:09:05;2.30;;;1.77;;
22711;SDS011;11523;50.390;8.072;2023-07-20T18:11:32;2.55;;;1.73;;
22711;SDS011;11523;50.390;8.072;2023-07-20T18:13:58;1.98;;;1.70;;
22711;SDS011;11523;50.390;8.072;2023-07-20T18:16:25;2.00;;;1.80;;
22711;SDS011;11523;50.390;8.072;2023-07-20T18:18:51;2.70;;;1.90;;
22711;SDS011;11523;50.390;8.072;2023-07-20T18:21:17;2.25;;;2.00;;
22711;SDS011;11523;50.390;8.072;2023-07-20T18:23:43;2.92;;;1.85;;
22711;SDS011;11523;50.390;8.072;2023-07-20T18:26:09;3.75;;;1.50;;
22711;SDS011;11523;50.390;8.072;2023-07-20T18:28:35;2.13;;;1.85;;
22711;SDS011;11523;50.390;8.072;2023-07-20T18:31:04;2.83;;;1.90;;
22711;SDS011;11523;50.390;8.072;2023-07-20T18:33:30;4.30;;;1.90;;
22711;SDS011;11523;50.390;8.072;2023-07-20T18:35:56;1.80;;;1.48;;
22711;SDS011;11523;50.390;8.072;2023-07-20T18:38:22;3.75;;;1.80;;
22711;SDS011;11523;50.390;8.072;2023-07-20T18:40:49;2.97;;;1.85;;
22711;SDS011;11523;50.390;8.072;2023-07-20T18:43:15;3.33;;;1.70;;